Terminal Aerodrome Forecast
Issued by NWS

Home | Current Version | Previous Version | Text Only | Print | Product List | Glossary On
Versions: 1 2 3 4 5 6 7 8 9 10 11 12 13 14 15 16 17 18 19 20 21 22 23 24 25 26 27 28 29 30 31 32 33 34 35 36 37 38 39 40 41 42 43 44 45 46 47 48 49 50
000
FTUS43 KLOT 221120
TAFORD
TAF
KORD 221120Z 2212/2318 18010KT P6SM SCT120 BKN250
     FM221500 19013G20KT P6SM BKN120
     FM221900 19018G28KT P6SM SCT060 BKN120
     FM222200 20018G28KT P6SM VCSH SCT060 BKN100 PROB30 2302/2306
      6SM -SHRA BKN050
     FM230800 24014G24KT P6SM SCT015 BKN022
     FM231100 29013G23KT P6SM SCT010 OVC018
     FM231600 34010G15KT P6SM OVC020=

USA.gov is the U.S. government's official web portal to all federal, state and local government web resources and services.